sensor_id;sensor_type;location;lat;lon;timestamp;pressure;altitude;pressure_sealevel;temperature;humidity
44385;BME280;30101;32.778;34.994;2023-02-01T00:03:23;97071.28;;;10.11;81.47
44385;BME280;30101;32.778;34.994;2023-02-01T00:08:27;97066.09;;;10.16;80.73
44385;BME280;30101;32.778;34.994;2023-02-01T00:13:32;97059.84;;;10.22;81.03
44385;BME280;30101;32.778;34.994;2023-02-01T00:18:36;97050.63;;;10.24;81.51
44385;BME280;30101;32.778;34.994;2023-02-01T00:23:39;97054.13;;;10.25;81.52
44385;BME280;30101;32.778;34.994;2023-02-01T00:28:43;97055.66;;;10.33;81.34
44385;BME280;30101;32.778;34.994;2023-02-01T00:33:47;97064.63;;;10.38;82.18
44385;BME280;30101;32.778;34.994;2023-02-01T00:38:51;97064.16;;;10.41;82.33
44385;BME280;30101;32.778;34.994;2023-02-01T00:43:54;97056.88;;;10.48;82.43
44385;BME280;30101;32.778;34.994;2023-02-01T00:48:57;97055.25;;;10.47;81.47
44385;BME280;30101;32.778;34.994;2023-02-01T00:54:01;97048.28;;;10.46;81.34
44385;BME280;30101;32.778;34.994;2023-02-01T00:59:04;97038.06;;;10.43;81.71
44385;BME280;30101;32.778;34.994;2023-02-01T01:04:08;97040.75;;;10.43;81.62
44385;BME280;30101;32.778;34.994;2023-02-01T01:09:11;97033.97;;;10.41;81.59
44385;BME280;30101;32.778;34.994;2023-02-01T01:14:14;97023.44;;;10.46;81.20
44385;BME280;30101;32.778;34.994;2023-02-01T01:19:18;97012.78;;;10.46;81.41
44385;BME280;30101;32.778;34.994;2023-02-01T01:24:21;97010.69;;;10.48;81.55
44385;BME280;30101;32.778;34.994;2023-02-01T01:29:24;97012.56;;;10.59;81.86
44385;BME280;30101;32.778;34.994;2023-02-01T01:34:27;97011.78;;;10.70;81.33
44385;BME280;30101;32.778;34.994;2023-02-01T01:39:30;97020.28;;;10.79;80.71
44385;BME280;30101;32.778;34.994;2023-02-01T01:45:04;97019.25;;;10.92;80.68
44385;BME280;30101;32.778;34.994;2023-02-01T01:50:15;97012.53;;;11.01;80.97
44385;BME280;30101;32.778;34.994;2023-02-01T01:55:20;97018.69;;;11.01;81.23
44385;BME280;30101;32.778;34.994;2023-02-01T02:00:25;96999.41;;;10.99;81.03
44385;BME280;30101;32.778;34.994;2023-02-01T02:05:31;96989.88;;;10.92;80.88
44385;BME280;30101;32.778;34.994;2023-02-01T02:10:35;96977.13;;;10.82;80.52
44385;BME280;30101;32.778;34.994;2023-02-01T02:15:45;96972.72;;;10.88;81.02
44385;BME280;30101;32.778;34.994;2023-02-01T02:43:20;96983.03;;;10.84;80.66
44385;BME280;30101;32.778;34.994;2023-02-01T02:48:25;96989.16;;;10.73;81.36
44385;BME280;30101;32.778;34.994;2023-02-01T02:59:08;96977.22;;;10.75;80.82
44385;BME280;30101;32.778;34.994;2023-02-01T03:04:14;96979.66;;;10.77;80.36
44385;BME280;30101;32.778;34.994;2023-02-01T03:09:34;96990.22;;;10.84;80.97
44385;BME280;30101;32.778;34.994;2023-02-01T03:14:40;96992.91;;;10.95;80.76
44385;BME280;30101;32.778;34.994;2023-02-01T03:19:48;96983.16;;;11.01;80.33
44385;BME280;30101;32.778;34.994;2023-02-01T03:24:56;97011.75;;;11.00;80.37
44385;BME280;30101;32.778;34.994;2023-02-01T03:30:11;97005.16;;;10.61;80.84
44385;BME280;30101;32.778;34.994;2023-02-01T03:35:25;96995.47;;;10.18;81.13
44385;BME280;30101;32.778;34.994;2023-02-01T03:40:33;97010.72;;;9.99;81.77
44385;BME280;30101;32.778;34.994;2023-02-01T03:45:41;97001.66;;;10.00;82.40
44385;BME280;30101;32.778;34.994;2023-02-01T03:50:52;97013.28;;;10.06;81.41
44385;BME280;30101;32.778;34.994;2023-02-01T03:55:58;97014.69;;;10.09;81.84
44385;BME280;30101;32.778;34.994;2023-02-01T04:01:01;97011.78;;;10.10;81.79
44385;BME280;30101;32.778;34.994;2023-02-01T04:06:09;97008.06;;;10.11;82.27
44385;BME280;30101;32.778;34.994;2023-02-01T04:11:12;97017.03;;;10.17;82.17
44385;BME280;30101;32.778;34.994;2023-02-01T04:16:16;97017.97;;;10.22;81.51
44385;BME280;30101;32.778;34.994;2023-02-01T04:21:19;97022.31;;;10.23;81.08
44385;BME280;30101;32.778;34.994;2023-02-01T04:26:23;97026.41;;;10.26;81.18
44385;BME280;30101;32.778;34.994;2023-02-01T04:31:26;97025.69;;;10.31;81.06
44385;BME280;30101;32.778;34.994;2023-02-01T04:36:29;97036.06;;;10.39;81.54
44385;BME280;30101;32.778;34.994;2023-02-01T04:41:32;97025.88;;;10.47;80.99
44385;BME280;30101;32.778;34.994;2023-02-01T04:46:35;97032.53;;;10.57;80.38
44385;BME280;30101;32.778;34.994;2023-02-01T04:51:38;97027.31;;;10.62;80.41
44385;BME280;30101;32.778;34.994;2023-02-01T04:56:42;97027.81;;;10.70;80.67
44385;BME280;30101;32.778;34.994;2023-02-01T05:01:46;97035.16;;;10.87;80.84
44385;BME280;30101;32.778;34.994;2023-02-01T05:06:51;97023.44;;;10.99;80.32
44385;BME280;30101;32.778;34.994;2023-02-01T05:11:54;97013.69;;;11.17;79.90
44385;BME280;30101;32.778;34.994;2023-02-01T05:16:57;97003.84;;;11.29;79.58
44385;BME280;30101;32.778;34.994;2023-02-01T05:22:00;97021.50;;;11.42;79.85
44385;BME280;30101;32.778;34.994;2023-02-01T05:27:03;97028.13;;;10.62;81.70
44385;BME280;30101;32.778;34.994;2023-02-01T05:32:08;97036.38;;;10.31;81.54
44385;BME280;30101;32.778;34.994;2023-02-01T05:37:24;97034.06;;;10.16;82.43
44385;BME280;30101;32.778;34.994;2023-02-01T05:42:27;97039.66;;;10.14;82.62
44385;BME280;30101;32.778;34.994;2023-02-01T05:47:31;97046.59;;;10.15;83.08
44385;BME280;30101;32.778;34.994;2023-02-01T05:52:34;97048.69;;;10.32;82.45
44385;BME280;30101;32.778;34.994;2023-02-01T05:57:38;97054.97;;;10.37;82.61
44385;BME280;30101;32.778;34.994;2023-02-01T06:02:41;97057.38;;;10.57;82.03
44385;BME280;30101;32.778;34.994;2023-02-01T06:07:44;97056.31;;;10.88;80.96
44385;BME280;30101;32.778;34.994;2023-02-01T06:12:48;97064.13;;;11.01;80.53
44385;BME280;30101;32.778;34.994;2023-02-01T06:17:51;97060.19;;;10.74;81.44
44385;BME280;30101;32.778;34.994;2023-02-01T06:22:56;97068.91;;;10.21;81.90
44385;BME280;30101;32.778;34.994;2023-02-01T06:28:01;97110.19;;;9.82;82.41
44385;BME280;30101;32.778;34.994;2023-02-01T06:33:04;97127.53;;;9.66;83.06
44385;BME280;30101;32.778;34.994;2023-02-01T06:38:07;97128.53;;;9.46;83.37
44385;BME280;30101;32.778;34.994;2023-02-01T06:43:11;97134.84;;;9.27;84.10
44385;BME280;30101;32.778;34.994;2023-02-01T06:48:14;97128.31;;;9.23;84.39
44385;BME280;30101;32.778;34.994;2023-02-01T06:53:17;97111.03;;;9.07;84.96
44385;BME280;30101;32.778;34.994;2023-02-01T06:58:21;97122.66;;;9.13;84.79
44385;BME280;30101;32.778;34.994;2023-02-01T07:03:24;97118.59;;;9.35;83.50
44385;BME280;30101;32.778;34.994;2023-02-01T07:08:28;97117.09;;;9.64;83.26
44385;BME280;30101;32.778;34.994;2023-02-01T07:13:32;97116.03;;;9.90;82.44
44385;BME280;30101;32.778;34.994;2023-02-01T07:18:35;97134.31;;;10.05;82.28
44385;BME280;30101;32.778;34.994;2023-02-01T07:23:39;97124.41;;;10.12;83.28
44385;BME280;30101;32.778;34.994;2023-02-01T07:28:41;97127.09;;;10.31;82.28
44385;BME280;30101;32.778;34.994;2023-02-01T07:33:45;97123.31;;;10.38;81.73
44385;BME280;30101;32.778;34.994;2023-02-01T07:38:48;97114.47;;;10.56;81.84
44385;BME280;30101;32.778;34.994;2023-02-01T07:43:52;97109.81;;;10.82;81.48
44385;BME280;30101;32.778;34.994;2023-02-01T07:48:55;97107.91;;;11.12;80.79
44385;BME280;30101;32.778;34.994;2023-02-01T07:53:58;97088.88;;;11.44;80.75
44385;BME280;30101;32.778;34.994;2023-02-01T07:59:02;97082.50;;;11.56;81.51
44385;BME280;30101;32.778;34.994;2023-02-01T08:04:05;97068.19;;;11.74;81.49
44385;BME280;30101;32.778;34.994;2023-02-01T08:09:10;97056.25;;;11.88;81.03
44385;BME280;30101;32.778;34.994;2023-02-01T08:14:13;97066.72;;;11.90;81.28
44385;BME280;30101;32.778;34.994;2023-02-01T08:19:17;97049.03;;;11.30;81.03
44385;BME280;30101;32.778;34.994;2023-02-01T08:24:21;97030.97;;;10.37;83.15
44385;BME280;30101;32.778;34.994;2023-02-01T08:29:26;97015.91;;;9.94;84.61
44385;BME280;30101;32.778;34.994;2023-02-01T08:34:29;97021.56;;;10.16;84.36
44385;BME280;30101;32.778;34.994;2023-02-01T08:39:32;97039.59;;;10.51;83.95
44385;BME280;30101;32.778;34.994;2023-02-01T08:44:35;97003.31;;;10.73;83.94
44385;BME280;30101;32.778;34.994;2023-02-01T08:49:39;97014.03;;;10.97;83.36
44385;BME280;30101;32.778;34.994;2023-02-01T08:54:43;96985.59;;;10.91;83.95
44385;BME280;30101;32.778;34.994;2023-02-01T08:59:46;96974.88;;;10.79;83.56
44385;BME280;30101;32.778;34.994;2023-02-01T09:04:49;97050.66;;;10.66;84.63
44385;BME280;30101;32.778;34.994;2023-02-01T09:09:52;97035.94;;;9.60;84.94
44385;BME280;30101;32.778;34.994;2023-02-01T09:14:55;97036.63;;;8.87;86.64
44385;BME280;30101;32.778;34.994;2023-02-01T09:19:59;97019.19;;;8.91;87.86
44385;BME280;30101;32.778;34.994;2023-02-01T09:25:02;97033.59;;;9.09;88.26
44385;BME280;30101;32.778;34.994;2023-02-01T09:30:07;97031.31;;;9.12;87.85
44385;BME280;30101;32.778;34.994;2023-02-01T09:35:10;97046.31;;;9.07;87.76
44385;BME280;30101;32.778;34.994;2023-02-01T09:40:16;97023.81;;;9.03;88.28
44385;BME280;30101;32.778;34.994;2023-02-01T09:45:44;97002.53;;;9.21;87.58
44385;BME280;30101;32.778;34.994;2023-02-01T09:50:57;96990.59;;;9.30;87.84
44385;BME280;30101;32.778;34.994;2023-02-01T09:56:07;96985.63;;;9.34;87.61
44385;BME280;30101;32.778;34.994;2023-02-01T10:01:24;96959.41;;;9.67;86.64
44385;BME280;30101;32.778;34.994;2023-02-01T10:06:53;96948.78;;;9.79;86.97
44385;BME280;30101;32.778;34.994;2023-02-01T10:28:33;96959.75;;;8.98;88.13
44385;BME280;30101;32.778;34.994;2023-02-01T10:33:43;96935.75;;;8.79;88.89
44385;BME280;30101;32.778;34.994;2023-02-01T10:38:47;96940.34;;;8.90;88.64
44385;BME280;30101;32.778;34.994;2023-02-01T10:43:56;96907.63;;;9.08;88.66
44385;BME280;30101;32.778;34.994;2023-02-01T10:49:03;96922.63;;;9.21;88.40
44385;BME280;30101;32.778;34.994;2023-02-01T10:54:32;96938.53;;;9.28;88.38
44385;BME280;30101;32.778;34.994;2023-02-01T10:59:36;96908.00;;;9.30;88.57
44385;BME280;30101;32.778;34.994;2023-02-01T11:04:39;96920.78;;;9.40;89.17
44385;BME280;30101;32.778;34.994;2023-02-01T11:09:49;96907.78;;;9.50;88.39
44385;BME280;30101;32.778;34.994;2023-02-01T11:15:21;96895.22;;;9.69;88.00
44385;BME280;30101;32.778;34.994;2023-02-01T11:25:35;96910.13;;;9.88;87.99
44385;BME280;30101;32.778;34.994;2023-02-01T11:30:42;96903.56;;;9.72;88.32
44385;BME280;30101;32.778;34.994;2023-02-01T11:35:47;96913.97;;;9.62;88.98
44385;BME280;30101;32.778;34.994;2023-02-01T11:40:51;96900.66;;;9.62;89.57
44385;BME280;30101;32.778;34.994;2023-02-01T11:46:03;96885.28;;;9.76;89.19
44385;BME280;30101;32.778;34.994;2023-02-01T12:45:54;96945.81;;;10.06;90.78
44385;BME280;30101;32.778;34.994;2023-02-01T12:56:26;96946.16;;;10.09;90.17
44385;BME280;30101;32.778;34.994;2023-02-01T13:01:54;96945.75;;;10.24;89.22
44385;BME280;30101;32.778;34.994;2023-02-01T13:07:22;96965.97;;;10.32;89.94
44385;BME280;30101;32.778;34.994;2023-02-01T13:12:43;96972.94;;;10.33;89.71
44385;BME280;30101;32.778;34.994;2023-02-01T13:17:49;96968.22;;;10.46;89.73
44385;BME280;30101;32.778;34.994;2023-02-01T13:23:01;96966.72;;;10.62;89.14
44385;BME280;30101;32.778;34.994;2023-02-01T13:28:12;96957.94;;;10.73;89.38
44385;BME280;30101;32.778;34.994;2023-02-01T13:44:47;97004.19;;;11.09;87.58
44385;BME280;30101;32.778;34.994;2023-02-01T13:49:53;97012.41;;;10.84;83.77
44385;BME280;30101;32.778;34.994;2023-02-01T14:00:28;97014.47;;;10.70;82.66
44385;BME280;30101;32.778;34.994;2023-02-01T14:21:25;97004.03;;;10.80;78.68
44385;BME280;30101;32.778;34.994;2023-02-01T14:37:07;97063.25;;;10.77;80.70
44385;BME280;30101;32.778;34.994;2023-02-01T14:52:32;97073.31;;;10.64;80.60
44385;BME280;30101;32.778;34.994;2023-02-01T14:57:39;97089.31;;;10.64;81.06
44385;BME280;30101;32.778;34.994;2023-02-01T15:02:46;97093.84;;;10.63;80.83
44385;BME280;30101;32.778;34.994;2023-02-01T15:07:51;97102.22;;;10.48;80.87
44385;BME280;30101;32.778;34.994;2023-02-01T15:12:54;97103.22;;;10.36;80.79
44385;BME280;30101;32.778;34.994;2023-02-01T15:17:59;97108.88;;;10.27;81.16
44385;BME280;30101;32.778;34.994;2023-02-01T15:23:04;97103.00;;;10.19;81.35
44385;BME280;30101;32.778;34.994;2023-02-01T15:28:15;97106.34;;;10.14;80.96
44385;BME280;30101;32.778;34.994;2023-02-01T15:33:20;97109.34;;;10.18;80.97
44385;BME280;30101;32.778;34.994;2023-02-01T15:43:27;97110.78;;;10.39;80.51
44385;BME280;30101;32.778;34.994;2023-02-01T15:48:36;97122.28;;;10.39;79.82
44385;BME280;30101;32.778;34.994;2023-02-01T15:53:56;97148.69;;;9.86;80.94
44385;BME280;30101;32.778;34.994;2023-02-01T15:59:04;97131.44;;;9.20;82.96
44385;BME280;30101;32.778;34.994;2023-02-01T16:09:22;97140.47;;;8.49;84.39
44385;BME280;30101;32.778;34.994;2023-02-01T16:14:26;97138.34;;;8.58;84.10
44385;BME280;30101;32.778;34.994;2023-02-01T16:19:29;97139.53;;;8.69;84.05
44385;BME280;30101;32.778;34.994;2023-02-01T16:24:32;97133.88;;;8.90;84.33
44385;BME280;30101;32.778;34.994;2023-02-01T16:29:35;97154.41;;;9.14;84.67
44385;BME280;30101;32.778;34.994;2023-02-01T16:34:39;97164.78;;;9.23;83.82
44385;BME280;30101;32.778;34.994;2023-02-01T16:39:42;97192.13;;;9.36;82.36
44385;BME280;30101;32.778;34.994;2023-02-01T16:44:45;97201.34;;;9.40;81.08
44385;BME280;30101;32.778;34.994;2023-02-01T16:49:48;97190.88;;;9.45;81.09
44385;BME280;30101;32.778;34.994;2023-02-01T16:54:53;97192.13;;;9.68;78.69
44385;BME280;30101;32.778;34.994;2023-02-01T17:00:03;97190.31;;;9.87;77.38
44385;BME280;30101;32.778;34.994;2023-02-01T17:05:34;97212.34;;;10.00;74.97
44385;BME280;30101;32.778;34.994;2023-02-01T17:10:37;97212.72;;;10.04;73.43
44385;BME280;30101;32.778;34.994;2023-02-01T17:16:02;97219.09;;;10.03;72.70
44385;BME280;30101;32.778;34.994;2023-02-01T17:21:08;97223.47;;;10.16;74.08
44385;BME280;30101;32.778;34.994;2023-02-01T17:26:12;97218.91;;;10.23;73.47
44385;BME280;30101;32.778;34.994;2023-02-01T17:31:16;97225.75;;;10.37;70.32
44385;BME280;30101;32.778;34.994;2023-02-01T17:36:20;97234.06;;;10.47;70.68
44385;BME280;30101;32.778;34.994;2023-02-01T17:41:24;97251.50;;;10.50;71.02
44385;BME280;30101;32.778;34.994;2023-02-01T17:46:31;97249.00;;;10.30;69.85
44385;BME280;30101;32.778;34.994;2023-02-01T17:51:35;97251.78;;;10.17;68.98
44385;BME280;30101;32.778;34.994;2023-02-01T17:56:40;97263.66;;;10.21;68.19
44385;BME280;30101;32.778;34.994;2023-02-01T18:01:49;97279.03;;;10.25;66.17
44385;BME280;30101;32.778;34.994;2023-02-01T18:06:52;97279.03;;;10.25;63.62
44385;BME280;30101;32.778;34.994;2023-02-01T18:11:55;97267.59;;;10.18;63.05
44385;BME280;30101;32.778;34.994;2023-02-01T18:16:58;97274.16;;;10.16;61.86
44385;BME280;30101;32.778;34.994;2023-02-01T18:22:01;97287.03;;;10.25;60.76
44385;BME280;30101;32.778;34.994;2023-02-01T18:27:04;97279.34;;;10.36;61.89
44385;BME280;30101;32.778;34.994;2023-02-01T18:32:09;97278.69;;;10.40;62.23
44385;BME280;30101;32.778;34.994;2023-02-01T18:37:13;97292.03;;;10.40;61.73
44385;BME280;30101;32.778;34.994;2023-02-01T18:42:23;97309.13;;;10.33;61.39
44385;BME280;30101;32.778;34.994;2023-02-01T18:47:26;97304.75;;;10.13;61.84
44385;BME280;30101;32.778;34.994;2023-02-01T18:52:29;97323.59;;;9.93;62.41
44385;BME280;30101;32.778;34.994;2023-02-01T18:57:32;97329.09;;;9.67;64.92
44385;BME280;30101;32.778;34.994;2023-02-01T19:02:36;97324.84;;;9.14;66.54
44385;BME280;30101;32.778;34.994;2023-02-01T19:07:41;97319.00;;;8.93;68.00
44385;BME280;30101;32.778;34.994;2023-02-01T19:12:45;97312.66;;;8.94;68.00
44385;BME280;30101;32.778;34.994;2023-02-01T19:17:50;97323.00;;;9.15;68.59
44385;BME280;30101;32.778;34.994;2023-02-01T19:22:54;97310.84;;;9.32;67.82
44385;BME280;30101;32.778;34.994;2023-02-01T19:27:57;97312.81;;;9.50;67.36
44385;BME280;30101;32.778;34.994;2023-02-01T19:33:01;97313.50;;;9.70;67.64
44385;BME280;30101;32.778;34.994;2023-02-01T19:38:05;97306.38;;;9.89;67.11
44385;BME280;30101;32.778;34.994;2023-02-01T19:43:08;97280.47;;;9.96;66.46
44385;BME280;30101;32.778;34.994;2023-02-01T19:48:11;97311.56;;;10.09;65.30
44385;BME280;30101;32.778;34.994;2023-02-01T19:53:14;97323.38;;;10.20;64.63
44385;BME280;30101;32.778;34.994;2023-02-01T19:58:18;97316.38;;;10.25;64.71
44385;BME280;30101;32.778;34.994;2023-02-01T20:03:22;97322.72;;;10.31;65.38
44385;BME280;30101;32.778;34.994;2023-02-01T20:08:27;97338.13;;;10.22;65.35
44385;BME280;30101;32.778;34.994;2023-02-01T20:13:30;97351.19;;;10.06;66.59
44385;BME280;30101;32.778;34.994;2023-02-01T20:18:33;97362.13;;;9.97;67.00
44385;BME280;30101;32.778;34.994;2023-02-01T20:23:36;97353.34;;;9.90;67.73
44385;BME280;30101;32.778;34.994;2023-02-01T20:28:40;97369.81;;;9.42;68.64
44385;BME280;30101;32.778;34.994;2023-02-01T20:33:43;97394.59;;;8.65;71.09
44385;BME280;30101;32.778;34.994;2023-02-01T20:38:46;97390.50;;;8.29;72.04
44385;BME280;30101;32.778;34.994;2023-02-01T20:43:49;97391.31;;;8.23;72.46
44385;BME280;30101;32.778;34.994;2023-02-01T20:48:53;97389.31;;;8.38;72.17
44385;BME280;30101;32.778;34.994;2023-02-01T20:53:57;97385.59;;;8.59;72.17
44385;BME280;30101;32.778;34.994;2023-02-01T20:59:00;97410.56;;;8.78;70.52
44385;BME280;30101;32.778;34.994;2023-02-01T21:04:03;97413.00;;;8.93;69.30
44385;BME280;30101;32.778;34.994;2023-02-01T21:09:06;97413.38;;;9.03;68.36
44385;BME280;30101;32.778;34.994;2023-02-01T21:14:10;97405.56;;;9.15;68.83
44385;BME280;30101;32.778;34.994;2023-02-01T21:19:13;97393.44;;;9.32;68.87
44385;BME280;30101;32.778;34.994;2023-02-01T21:24:16;97402.78;;;9.48;68.52
44385;BME280;30101;32.778;34.994;2023-02-01T21:29:21;97415.66;;;9.58;67.39
44385;BME280;30101;32.778;34.994;2023-02-01T21:34:25;97425.84;;;9.67;67.26
44385;BME280;30101;32.778;34.994;2023-02-01T21:39:28;97444.75;;;9.59;68.19
44385;BME280;30101;32.778;34.994;2023-02-01T21:44:31;97451.59;;;9.42;68.88
44385;BME280;30101;32.778;34.994;2023-02-01T21:49:35;97435.22;;;9.38;69.16
44385;BME280;30101;32.778;34.994;2023-02-01T21:54:41;97444.63;;;9.41;69.13
44385;BME280;30101;32.778;34.994;2023-02-01T21:59:44;97451.41;;;9.37;68.86
44385;BME280;30101;32.778;34.994;2023-02-01T22:04:47;97444.06;;;9.32;68.89
44385;BME280;30101;32.778;34.994;2023-02-01T22:09:51;97447.09;;;9.36;68.47
44385;BME280;30101;32.778;34.994;2023-02-01T22:14:54;97448.91;;;9.49;68.11
44385;BME280;30101;32.778;34.994;2023-02-01T22:19:57;97455.03;;;9.62;67.33
44385;BME280;30101;32.778;34.994;2023-02-01T22:25:00;97457.44;;;9.70;67.21
44385;BME280;30101;32.778;34.994;2023-02-01T22:30:04;97459.47;;;9.75;66.00
44385;BME280;30101;32.778;34.994;2023-02-01T22:35:08;97466.25;;;9.71;66.13
44385;BME280;30101;32.778;34.994;2023-02-01T22:40:13;97471.38;;;9.66;65.04
44385;BME280;30101;32.778;34.994;2023-02-01T22:45:16;97483.09;;;9.65;63.94
44385;BME280;30101;32.778;34.994;2023-02-01T22:50:19;97489.03;;;9.67;63.70
44385;BME280;30101;32.778;34.994;2023-02-01T22:55:23;97503.59;;;9.64;63.83
44385;BME280;30101;32.778;34.994;2023-02-01T23:00:27;97490.28;;;9.58;63.56
44385;BME280;30101;32.778;34.994;2023-02-01T23:05:30;97488.19;;;9.66;63.68
44385;BME280;30101;32.778;34.994;2023-02-01T23:10:33;97477.31;;;9.75;63.98
44385;BME280;30101;32.778;34.994;2023-02-01T23:15:39;97488.59;;;9.77;63.53
44385;BME280;30101;32.778;34.994;2023-02-01T23:20:43;97501.31;;;9.75;64.51
44385;BME280;30101;32.778;34.994;2023-02-01T23:25:50;97514.91;;;9.53;65.94
44385;BME280;30101;32.778;34.994;2023-02-01T23:30:53;97516.16;;;9.44;65.44
44385;BME280;30101;32.778;34.994;2023-02-01T23:35:59;97519.22;;;9.41;65.84
44385;BME280;30101;32.778;34.994;2023-02-01T23:41:04;97511.44;;;9.46;65.52
44385;BME280;30101;32.778;34.994;2023-02-01T23:46:10;97533.34;;;9.55;65.31
44385;BME280;30101;32.778;34.994;2023-02-01T23:51:14;97538.50;;;9.56;65.48
44385;BME280;30101;32.778;34.994;2023-02-01T23:56:31;97537.03;;;9.60;64.25
